Time;durP1;ratioP1;P1;durP2;ratioP2;P2;SDS_P1;SDS_P2;PMS_P1;PMS_P2;Temp;Humidity;BMP_temperature;BMP_pressure;BME280_temperature;BME280_humidity;BME280_pressure;Samples;Min_cycle;Max_cycle;Signal;HPM_P1;HPM_P2
2021/04/05 00:00:07;;;;;;;5.85;4.68;;;;;;;4.01;54.08;95180.50;5006795;28;20485;-62
2021/04/05 00:02:33;;;;;;;6.30;4.25;;;;;;;3.90;53.71;95163.13;5008249;28;20045;-63
2021/04/05 00:04:58;;;;;;;5.78;4.57;;;;;;;4.02;53.86;95187.31;5006975;28;20396;-61
2021/04/05 00:07:24;;;;;;;5.72;4.10;;;;;;;3.79;54.22;95143.88;5025317;28;20121;-62
2021/04/05 00:09:49;;;;;;;6.50;4.32;;;;;;;4.08;53.79;95186.28;5008462;28;20049;-63
2021/04/05 00:12:14;;;;;;;7.78;3.75;;;;;;;4.13;53.78;95188.13;5006946;28;20030;-62
2021/04/05 00:14:42;;;;;;;7.20;3.88;;;;;;;4.22;53.63;95198.94;5008738;28;20042;-62
2021/04/05 00:17:07;;;;;;;4.90;3.63;;;;;;;3.76;54.07;95119.94;5008137;28;21490;-63
2021/04/05 00:19:34;;;;;;;5.93;3.90;;;;;;;4.01;53.64;95154.16;5010221;28;20053;-62
2021/04/05 00:21:59;;;;;;;5.45;3.83;;;;;;;4.20;53.86;95174.69;5008011;28;20045;-63
2021/04/05 00:24:24;;;;;;;6.03;4.20;;;;;;;4.13;53.44;95167.06;5010770;28;20038;-64
2021/04/05 00:26:50;;;;;;;7.35;4.32;;;;;;;4.14;53.47;95169.44;5026874;28;20040;-62
2021/04/05 00:29:15;;;;;;;4.63;3.45;;;;;;;3.97;53.51;95147.84;5011737;28;20661;-62
2021/04/05 00:31:41;;;;;;;5.47;3.55;;;;;;;4.12;54.16;95176.03;5013601;28;20029;-62
2021/04/05 00:34:06;;;;;;;5.55;3.10;;;;;;;4.09;54.06;95164.16;5026864;28;20048;-62
2021/04/05 00:36:31;;;;;;;7.65;3.92;;;;;;;4.18;53.45;95167.88;5011725;28;20040;-62
2021/04/05 00:38:57;;;;;;;4.25;3.45;;;;;;;4.01;53.72;95121.81;5009985;28;20046;-63
2021/04/05 00:41:24;;;;;;;6.47;3.45;;;;;;;3.94;53.82;95095.72;5026536;28;20146;-62
2021/04/05 00:43:51;;;;;;;7.22;3.45;;;;;;;3.84;54.06;95083.38;5011494;28;20033;-63
2021/04/05 00:46:21;;;;;;;4.90;3.70;;;;;;;4.17;54.37;95128.66;5013542;28;20431;-62
2021/04/05 00:48:47;;;;;;;7.75;4.25;;;;;;;4.15;54.13;95139.44;5011312;28;20686;-62
2021/04/05 00:51:15;;;;;;;6.63;3.53;;;;;;;3.91;54.29;95091.00;5011064;28;20050;-62
2021/04/05 00:53:43;;;;;;;5.18;3.50;;;;;;;3.96;54.02;95106.00;5009869;28;20168;-62
2021/04/05 00:56:09;;;;;;;5.75;3.42;;;;;;;3.94;54.31;95106.25;5011451;28;20053;-62
2021/04/05 00:58:35;;;;;;;4.35;3.50;;;;;;;4.09;54.05;95118.63;5013016;28;20022;-62
2021/04/05 01:01:05;;;;;;;4.85;3.45;;;;;;;3.81;54.10;95069.94;5009720;28;20060;-62
2021/04/05 01:03:33;;;;;;;5.38;3.45;;;;;;;3.91;54.72;95085.75;5010891;28;20041;-65
2021/04/05 01:06:25;;;;;;;4.45;3.50;;;;;;;3.82;54.41;95066.25;5011195;28;20030;-62
2021/04/05 01:08:51;;;;;;;3.67;3.30;;;;;;;4.04;54.71;95097.56;5010831;28;20061;-62
2021/04/05 01:11:19;;;;;;;3.83;2.97;;;;;;;4.00;55.08;95086.81;5009810;28;20061;-64
2021/04/05 01:13:47;;;;;;;3.28;2.92;;;;;;;3.97;54.58;95074.16;5013230;28;20542;-62
2021/04/05 01:16:13;;;;;;;3.95;3.17;;;;;;;3.78;54.54;95044.16;5011533;28;20121;-62
2021/04/05 01:18:40;;;;;;;5.47;3.90;;;;;;;3.84;54.86;95046.53;5011066;28;20841;-62
2021/04/05 01:21:06;;;;;;;6.97;3.42;;;;;;;3.78;54.97;95041.53;5026146;28;20042;-62
2021/04/05 01:23:32;;;;;;;4.28;3.20;;;;;;;3.96;54.83;95071.78;5010730;28;20046;-63
2021/04/05 01:25:57;;;;;;;4.88;3.08;;;;;;;3.86;54.45;95057.59;5026210;28;20498;-64
2021/04/05 01:28:23;;;;;;;6.00;3.10;;;;;;;3.97;54.57;95079.41;5012611;28;20387;-62
2021/04/05 01:30:51;;;;;;;3.65;2.78;;;;;;;3.90;54.76;95058.63;5010725;28;20053;-63
2021/04/05 01:33:35;;;;;;;4.20;3.28;;;;;;;3.99;54.57;95076.53;5008793;28;20035;-61
2021/04/05 01:36:07;;;;;;;4.78;2.70;;;;;;;3.88;55.02;95055.47;5010526;28;20068;-64
2021/04/05 01:38:46;;;;;;;;;;;;;;;3.96;54.75;95069.16;5011009;28;20092;-63
2021/04/05 01:41:13;;;;;;;4.60;3.03;;;;;;;3.94;54.92;95074.66;5010420;28;19917;-63
2021/04/05 01:43:40;;;;;;;3.95;3.08;;;;;;;3.91;55.10;95064.69;5012485;28;20452;-62
2021/04/05 01:46:08;;;;;;;3.63;3.10;;;;;;;3.92;55.52;95061.78;5010399;28;20056;-62
2021/04/05 01:48:34;;;;;;;4.95;3.25;;;;;;;3.85;55.10;95039.44;5010289;28;20034;-62
2021/04/05 01:51:01;;;;;;;6.63;3.25;;;;;;;3.89;55.39;95038.66;5010503;28;20030;-61
2021/04/05 01:53:27;;;;;;;6.53;3.35;;;;;;;3.87;55.15;95038.09;5010351;28;20131;-62
2021/04/05 01:55:52;;;;;;;5.93;3.00;;;;;;;3.89;55.52;95043.91;5010781;28;20069;-62
2021/04/05 01:58:19;;;;;;;5.95;3.20;;;;;;;3.65;55.14;95017.31;5012335;28;20068;-62
2021/04/05 02:00:49;;;;;;;6.07;3.22;;;;;;;3.79;55.04;95027.34;5009083;28;20034;-62
2021/04/05 02:03:15;;;;;;;6.60;2.95;;;;;;;3.75;55.61;95032.31;5010007;28;20455;-62
2021/04/05 02:05:49;;;;;;;5.22;3.47;;;;;;;3.82;55.86;95039.94;5009611;28;20037;-62
2021/04/05 02:08:20;;;;;;;7.10;3.85;;;;;;;3.82;55.83;95032.06;5009897;28;20603;-61
2021/04/05 02:10:46;;;;;;;3.87;3.07;;;;;;;3.78;56.15;95023.09;5011947;28;20026;-62
2021/04/05 02:13:11;;;;;;;6.03;3.40;;;;;;;3.78;55.78;95018.63;5009790;28;20056;-62
2021/04/05 02:15:37;;;;;;;6.80;3.70;;;;;;;3.79;55.57;95019.44;5009896;28;20034;-61
2021/04/05 02:18:03;;;;;;;3.20;2.90;;;;;;;3.71;55.43;94998.91;5009748;28;20034;-62
2021/04/05 02:20:29;;;;;;;7.47;3.08;;;;;;;3.76;56.04;95006.81;5008103;28;20117;-62
2021/04/05 02:22:57;;;;;;;3.53;2.92;;;;;;;3.60;55.91;94990.25;5009652;28;20030;-62
2021/04/05 02:25:25;;;;;;;5.32;3.55;;;;;;;3.47;55.88;94967.09;5011735;28;20014;-62
2021/04/05 02:27:52;;;;;;;3.92;2.78;;;;;;;3.54;56.08;94976.31;5009439;28;20488;-62
2021/04/05 02:30:22;;;;;;;6.72;3.33;;;;;;;3.68;56.04;94983.66;5009536;28;20030;-62
2021/04/05 02:32:54;;;;;;;3.53;3.10;;;;;;;3.71;56.24;94986.56;5009438;28;20100;-63
2021/04/05 02:35:20;;;;;;;5.30;3.30;;;;;;;3.69;55.94;94988.66;5009966;28;20057;-63
2021/04/05 02:37:45;;;;;;;5.72;3.50;;;;;;;3.63;56.54;94980.00;5009953;28;20022;-63
2021/04/05 02:40:12;;;;;;;6.80;3.45;;;;;;;3.68;56.10;94986.28;5009058;28;20562;-61
2021/04/05 02:42:39;;;;;;;4.78;3.15;;;;;;;3.46;56.24;94961.03;5009204;28;20557;-63
2021/04/05 02:45:07;;;;;;;6.35;3.55;;;;;;;3.59;56.63;94978.16;5009388;28;20038;-63
2021/04/05 02:47:34;;;;;;;4.78;3.47;;;;;;;3.45;56.19;94970.00;5008634;28;20038;-61
2021/04/05 02:50:00;;;;;;;5.40;3.53;;;;;;;3.48;56.81;94976.53;5009291;28;20022;-61
2021/04/05 02:52:26;;;;;;;5.22;3.30;;;;;;;3.49;56.78;94989.44;5010921;28;20141;-63
2021/04/05 02:54:52;;;;;;;5.82;3.17;;;;;;;3.60;56.72;94993.66;5009279;28;20066;-61
2021/04/05 02:57:18;;;;;;;5.30;3.10;;;;;;;3.53;56.93;94981.81;5009022;28;20038;-61
2021/04/05 02:59:43;;;;;;;4.82;3.00;;;;;;;3.50;56.73;94964.72;5008303;28;20030;-61
2021/04/05 03:02:09;;;;;;;4.47;3.08;;;;;;;3.61;56.59;94970.78;5007698;28;20045;-61
2021/04/05 03:04:36;;;;;;;5.18;3.15;;;;;;;3.48;56.53;94947.63;5009653;28;20036;-62
2021/04/05 03:07:02;;;;;;;6.78;3.45;;;;;;;3.59;56.53;94965.78;5008752;28;20061;-62
2021/04/05 03:09:27;;;;;;;4.63;3.40;;;;;;;3.59;56.52;94965.00;5009068;28;20045;-63
2021/04/05 03:11:57;;;;;;;5.35;3.25;;;;;;;3.43;56.58;94927.41;5007381;28;20054;-61
2021/04/05 03:14:23;;;;;;;6.78;3.80;;;;;;;3.56;56.84;94950.53;5009016;28;20038;-63
2021/04/05 03:16:49;;;;;;;3.38;3.08;;;;;;;3.52;56.59;94938.16;5008621;28;20045;-62
2021/04/05 03:19:15;;;;;;;4.72;3.00;;;;;;;3.53;57.14;94937.91;5010774;28;20018;-62
2021/04/05 03:21:43;;;;;;;6.55;3.22;;;;;;;3.50;57.30;94927.13;5008571;28;20145;-62
2021/04/05 03:24:10;;;;;;;4.53;3.00;;;;;;;3.39;57.11;94905.31;5007448;28;20049;-61
2021/04/05 03:26:35;;;;;;;4.75;2.92;;;;;;;3.50;57.35;94924.50;5008905;28;20104;-62
2021/04/05 03:29:01;;;;;;;4.90;3.45;;;;;;;3.51;57.15;94920.81;5008378;28;20465;-62
2021/04/05 03:31:30;;;;;;;5.78;3.20;;;;;;;3.41;57.33;94902.41;5010454;28;20030;-62
2021/04/05 03:34:00;;;;;;;6.25;3.70;;;;;;;3.44;57.04;94912.41;5024074;28;20038;-63
2021/04/05 03:36:27;;;;;;;3.58;2.85;;;;;;;3.47;57.69;94911.88;5007530;28;20046;-61
2021/04/05 03:38:53;;;;;;;6.25;3.20;;;;;;;3.27;57.42;94870.59;5008344;28;20111;-62
2021/04/05 03:41:29;;;;;;;4.57;2.88;;;;;;;3.31;57.56;94876.91;5008292;28;20042;-61
2021/04/05 03:44:05;;;;;;;5.15;3.50;;;;;;;3.44;57.81;94894.00;5008564;28;20033;-62
2021/04/05 03:46:36;;;;;;;3.65;3.17;;;;;;;3.44;57.37;94880.84;5010627;28;20030;-62
2021/04/05 03:49:07;;;;;;;8.53;4.00;;;;;;;3.43;57.85;94889.78;5008424;28;20038;-62
2021/04/05 03:51:40;;;;;;;3.40;2.95;;;;;;;3.32;57.79;94865.34;5008333;28;20084;-62
2021/04/05 03:54:11;;;;;;;4.68;3.00;;;;;;;3.38;57.86;94872.97;5008530;28;20197;-62
2021/04/05 03:56:43;;;;;;;4.70;2.90;;;;;;;3.42;57.27;94864.53;5007299;28;20052;-63
2021/04/05 03:59:14;;;;;;;4.07;2.90;;;;;;;3.41;57.44;94863.75;5012371;28;20053;-60
2021/04/05 04:01:55;;;;;;;5.15;2.95;;;;;;;3.41;57.36;94852.47;5014210;28;20030;-62
2021/04/05 04:04:36;;;;;;;2.88;2.30;;;;;;;3.48;57.43;94861.66;5028065;28;20041;-61
2021/04/05 04:09:34;;;;;;;4.28;3.10;;;;;;;3.49;57.48;94852.72;5012412;28;20273;-62
2021/04/05 04:12:00;;;;;;;2.80;2.55;;;;;;;3.49;57.35;94847.47;5012244;28;20479;-61
2021/04/05 04:14:26;;;;;;;4.32;3.20;;;;;;;3.54;57.31;94857.97;5012457;28;20478;-61
2021/04/05 04:16:53;;;;;;;5.00;2.88;;;;;;;3.54;56.73;94852.72;5012151;28;20105;-61
2021/04/05 04:19:20;;;;;;;5.40;2.80;;;;;;;3.55;56.88;94846.38;5029047;28;20029;-61
2021/04/05 04:21:47;;;;;;;3.92;2.53;;;;;;;3.51;57.08;94834.03;5011954;28;20068;-61
2021/04/05 04:24:13;;;;;;;3.60;2.50;;;;;;;3.45;56.46;94828.00;5012290;28;20054;-63
2021/04/05 04:26:40;;;;;;;4.20;2.83;;;;;;;3.60;57.00;94838.47;5012336;28;20606;-61
2021/04/05 04:29:12;;;;;;;4.68;2.40;;;;;;;3.63;56.70;94842.41;5011768;28;20104;-62
2021/04/05 04:31:38;;;;;;;7.22;2.97;;;;;;;3.57;56.19;94830.34;5012286;28;20033;-61
2021/04/05 04:34:05;;;;;;;3.63;2.60;;;;;;;3.62;56.65;94820.59;5011861;28;20508;-61
2021/04/05 04:36:30;;;;;;;5.80;3.33;;;;;;;3.58;56.79;94824.00;5011775;28;20084;-62
2021/04/05 04:38:56;;;;;;;6.30;3.20;;;;;;;3.40;56.32;94775.44;5011460;28;20494;-61
2021/04/05 04:41:26;;;;;;;4.30;2.80;;;;;;;3.67;56.61;94806.63;5010056;28;20132;-62
2021/04/05 04:43:56;;;;;;;4.63;2.75;;;;;;;3.67;56.36;94792.69;5011763;28;20057;-62
2021/04/05 04:46:22;;;;;;;3.55;2.80;;;;;;;3.57;56.52;94772.47;5013609;28;20480;-63
2021/04/05 04:49:02;;;;;;;5.28;2.88;;;;;;;3.59;56.43;94765.91;5011356;28;20030;-63
2021/04/05 04:51:28;;;;;;;4.28;3.00;;;;;;;3.83;56.47;94786.31;5009963;28;20057;-62
2021/04/05 04:53:58;;;;;;;4.05;3.03;;;;;;;3.83;55.97;94784.47;5011627;28;20396;-62
2021/04/05 04:56:25;;;;;;;4.25;2.78;;;;;;;3.95;56.33;94778.91;5010131;28;20096;-62
2021/04/05 04:58:50;;;;;;;6.68;3.00;;;;;;;4.05;55.84;94778.06;5011179;28;20022;-62
2021/04/05 05:01:17;;;;;;;3.67;2.47;;;;;;;4.15;56.34;94776.19;5012992;28;20041;-62
2021/04/05 05:03:55;;;;;;;4.07;2.80;;;;;;;4.26;55.74;94776.13;5011351;28;20157;-62
2021/04/05 05:06:22;;;;;;;4.55;2.40;;;;;;;4.15;55.54;94752.50;5011244;28;20558;-62
2021/04/05 05:08:48;;;;;;;3.58;2.40;;;;;;;4.36;55.22;94757.63;5010598;28;20553;-62
2021/04/05 05:11:15;;;;;;;4.70;2.97;;;;;;;4.60;54.38;94776.91;5011078;28;20034;-62
2021/04/05 05:13:41;;;;;;;2.50;2.30;;;;;;;4.73;54.40;94766.84;5028288;28;20079;-62
2021/04/05 05:16:07;;;;;;;3.40;2.60;;;;;;;4.73;54.14;94756.31;5011149;28;20042;-62
2021/04/05 05:18:34;;;;;;;4.07;2.72;;;;;;;4.95;53.98;94778.50;5009262;28;20177;-61
2021/04/05 05:21:04;;;;;;;4.97;2.20;;;;;;;5.07;53.56;94770.25;5010646;28;20435;-61
2021/04/05 05:23:30;;;;;;;4.10;2.70;;;;;;;5.19;53.18;94780.41;5010844;28;20041;-63
2021/04/05 05:25:57;;;;;;;14.52;2.97;;;;;;;5.36;52.44;94777.34;5010817;28;20030;-64
2021/04/05 05:28:24;;;;;;;2.70;2.25;;;;;;;5.20;52.05;94742.41;5011215;28;20112;-61
2021/04/05 05:30:49;;;;;;;4.90;2.60;;;;;;;5.42;51.53;94771.72;5010720;28;20042;-63
2021/04/05 05:33:15;;;;;;;3.47;2.40;;;;;;;5.71;51.08;94776.16;5010533;28;20542;-62
2021/04/05 05:35:41;;;;;;;4.15;2.30;;;;;;;5.71;51.02;94769.03;5010550;28;20122;-64
2021/04/05 05:38:06;;;;;;;4.22;2.28;;;;;;;5.87;50.52;94759.06;5010514;28;20033;-63
2021/04/05 05:40:33;;;;;;;4.30;2.72;;;;;;;6.31;50.26;94775.72;5012450;28;20490;-63
2021/04/05 05:43:20;;;;;;;3.03;2.40;;;;;;;6.58;49.72;94753.91;5010755;28;20034;-62
2021/04/05 05:45:55;;;;;;;3.25;2.63;;;;;;;6.69;49.08;94752.69;5010673;28;20030;-61
2021/04/05 05:48:49;;;;;;;2.63;2.30;;;;;;;6.65;48.78;94747.19;5009106;28;20124;-64
2021/04/05 05:51:27;;;;;;;3.88;2.90;;;;;;;6.60;49.44;94731.41;5010027;28;20300;-63
2021/04/05 05:54:06;;;;;;;3.67;2.63;;;;;;;6.88;48.74;94737.59;5010293;28;20108;-64
2021/04/05 05:56:50;;;;;;;3.35;2.60;;;;;;;6.73;47.77;94714.81;5010223;28;20531;-64
2021/04/05 05:59:34;;;;;;;3.13;2.55;;;;;;;6.83;47.12;94734.25;5010301;28;20034;-64
2021/04/05 06:02:23;;;;;;;3.80;2.70;;;;;;;6.80;47.61;94730.31;5009991;28;20623;-64
2021/04/05 06:05:12;;;;;;;4.05;2.67;;;;;;;6.95;47.88;94730.03;5010319;28;20113;-64
2021/04/05 06:08:06;;;;;;;2.90;2.40;;;;;;;6.78;47.54;94727.19;5010925;28;20136;-62
2021/04/05 06:10:44;;;;;;;4.03;2.72;;;;;;;7.03;47.61;94723.31;5010713;28;20054;-64
2021/04/05 06:13:41;;;;;;;5.65;2.53;;;;;;;6.07;46.89;94599.66;5009033;28;20033;-63
2021/04/05 06:16:32;;;;;;;3.78;2.55;;;;;;;7.13;46.89;94731.06;5025282;28;20045;-63
2021/04/05 06:19:00;;;;;;;4.35;2.70;;;;;;;7.30;46.10;94736.56;5009921;28;20121;-63
2021/04/05 06:21:50;;;;;;;3.33;2.70;;;;;;;7.59;45.72;94724.94;5008660;28;20054;-64
2021/04/05 06:25:11;;;;;;;3.63;2.67;;;;;;;7.61;45.20;94725.41;5024702;28;20453;-66
2021/04/05 06:28:07;;;;;;;4.20;2.53;;;;;;;7.46;45.36;94717.78;4986048;28;20038;-63
2021/04/05 06:31:25;;;;;;;3.83;2.65;;;;;;;7.67;44.49;94708.34;5008105;28;20049;-64
2021/04/05 06:33:52;;;;;;;4.35;2.95;;;;;;;8.11;43.17;94698.97;5008791;28;20048;-63
2021/04/05 06:36:55;;;;;;;5.32;2.90;;;;;;;7.87;43.06;94693.13;5009564;28;20500;-64
2021/04/05 06:39:28;;;;;;;5.05;2.60;;;;;;;8.33;42.62;94688.38;5009489;28;20080;-65
2021/04/05 06:42:15;;;;;;;3.35;2.80;;;;;;;8.44;41.27;94675.72;5009283;28;20046;-64
2021/04/05 06:45:12;;;;;;;6.22;3.22;;;;;;;9.00;40.83;94674.34;5009529;28;20041;-63
2021/04/05 06:47:44;;;;;;;8.02;3.50;;;;;;;8.61;40.29;94669.75;4997171;28;20517;-64
2021/04/05 06:50:38;;;;;;;3.87;2.87;;;;;;;8.80;39.89;94667.72;5009252;28;20049;-62
2021/04/05 06:53:39;;;;;;;4.95;2.95;;;;;;;8.66;39.72;94667.00;5009253;28;20634;-63
2021/04/05 06:56:10;;;;;;;5.68;2.80;;;;;;;8.47;39.97;94642.53;4948748;29;20440;-65
2021/04/05 06:58:54;;;;;;;4.72;2.83;;;;;;;8.91;39.10;94657.63;5000371;28;20035;-65
2021/04/05 07:01:20;;;;;;;7.00;3.35;;;;;;;8.91;39.32;94668.22;5009364;28;20045;-65
2021/04/05 07:04:20;;;;;;;4.28;2.88;;;;;;;9.19;38.62;94646.81;5009401;28;20050;-64
2021/04/05 07:07:26;;;;;;;5.15;3.42;;;;;;;8.93;38.61;94641.38;5009175;28;20034;-65
2021/04/05 07:09:51;;;;;;;9.95;3.10;;;;;;;8.90;38.67;94644.63;5009222;28;20038;-65
2021/04/05 07:12:35;;;;;;;5.07;2.60;;;;;;;9.17;37.92;94644.47;5008992;28;20041;-66
2021/04/05 07:15:28;;;;;;;4.85;2.85;;;;;;;9.46;37.58;94641.25;5009138;28;20381;-63
2021/04/05 07:18:13;;;;;;;3.15;2.63;;;;;;;9.36;37.79;94631.72;5009172;28;20510;-65
2021/04/05 07:21:03;;;;;;;3.05;2.30;;;;;;;9.66;37.30;94628.50;5008882;28;20096;-65
2021/04/05 07:24:07;;;;;;;5.40;2.30;;;;;;;9.56;37.63;94625.03;5008832;28;20042;-65
2021/04/05 07:27:08;;;;;;;4.07;2.53;;;;;;;9.52;37.43;94602.06;5008865;28;20508;-65
2021/04/05 07:30:04;;;;;;;3.65;2.30;;;;;;;9.67;37.37;94595.53;5010424;28;20034;-65
2021/04/05 07:33:00;;;;;;;2.40;2.20;;;;;;;9.89;37.19;94595.41;5008238;28;20042;-65
2021/04/05 07:35:32;;;;;;;4.47;2.83;;;;;;;10.12;36.45;94585.41;5007344;28;20072;-67
2021/04/05 07:38:19;;;;;;;3.67;2.42;;;;;;;10.37;36.38;94589.94;5007321;28;20058;-65
2021/04/05 07:41:03;;;;;;;5.47;3.03;;;;;;;10.16;35.95;94589.00;5010163;28;20030;-65
2021/04/05 07:43:40;;;;;;;3.60;2.63;;;;;;;10.08;35.46;94557.88;5007631;28;20061;-65
2021/04/05 07:46:09;;;;;;;4.03;2.42;;;;;;;10.91;34.66;94590.28;5008708;28;20068;-65
2021/04/05 07:48:39;;;;;;;4.25;2.60;;;;;;;10.12;34.55;94479.09;5008070;28;20089;-68
2021/04/05 07:51:22;;;;;;;3.60;2.60;;;;;;;11.32;33.83;94575.53;5008767;28;20041;-62
2021/04/05 07:54:01;;;;;;;3.78;2.60;;;;;;;10.92;34.15;94551.13;5008826;28;20030;-65
2021/04/05 07:56:51;;;;;;;2.88;2.55;;;;;;;11.32;34.46;94559.56;5009201;28;20037;-63
2021/04/05 07:59:34;;;;;;;3.58;2.55;;;;;;;11.51;34.58;94553.00;5008856;28;20096;-62
2021/04/05 08:02:25;;;;;;;2.28;1.98;;;;;;;10.97;33.97;94552.84;5008161;28;20034;-66
2021/04/05 08:05:03;;;;;;;5.75;3.03;;;;;;;11.39;33.55;94554.50;5008364;28;20280;-63
2021/04/05 08:07:48;;;;;;;4.93;2.63;;;;;;;12.18;32.98;94536.03;5010143;28;20084;-64
2021/04/05 08:10:22;;;;;;;5.28;2.80;;;;;;;11.63;33.08;94548.53;5008612;28;20566;-60
2021/04/05 08:13:04;;;;;;;9.82;2.65;;;;;;;11.81;32.72;94527.09;5007980;28;20046;-65
2021/04/05 08:16:11;;;;;;;6.80;2.70;;;;;;;11.64;33.10;94544.78;5008438;28;20338;-60
2021/04/05 08:18:42;;;;;;;3.78;2.25;;;;;;;11.60;33.36;94532.41;4978937;28;20484;-59
2021/04/05 08:21:13;;;;;;;6.40;3.40;;;;;;;12.34;32.02;94534.34;5007968;28;20049;-61
2021/04/05 08:24:01;;;;;;;3.57;2.13;;;;;;;12.23;32.32;94539.31;5008259;28;20029;-60
2021/04/05 08:26:42;;;;;;;3.63;2.50;;;;;;;12.33;32.58;94532.75;5008482;28;20038;-61
2021/04/05 08:29:17;;;;;;;3.13;2.08;;;;;;;11.79;32.29;94482.13;5008095;28;20175;-68
2021/04/05 08:32:05;;;;;;;4.25;2.60;;;;;;;12.19;32.81;94532.28;5009823;28;20030;-60
2021/04/05 08:35:01;;;;;;;4.07;2.10;;;;;;;12.09;32.16;94540.69;5023812;28;20041;-61
2021/04/05 08:37:39;;;;;;;8.45;2.25;;;;;;;11.56;33.55;94526.19;5023207;28;20046;-59
2021/04/05 08:40:29;;;;;;;2.33;2.10;;;;;;;11.63;33.40;94524.56;5006683;28;20042;-60
2021/04/05 08:43:09;;;;;;;3.47;2.13;;;;;;;11.90;32.99;94525.16;5007974;28;20042;-65
2021/04/05 08:45:48;;;;;;;3.75;2.33;;;;;;;11.55;33.32;94527.28;5010893;28;20486;-68
2021/04/05 08:48:17;;;;;;;5.68;1.92;;;;;;;11.76;33.10;94503.31;5011048;28;20484;-64
2021/04/05 08:51:06;;;;;;;3.03;2.30;;;;;;;11.83;32.71;94525.69;5026731;28;20412;-62
2021/04/05 08:53:35;;;;;;;4.68;2.58;;;;;;;11.92;32.65;94505.06;5000377;28;20034;-62
2021/04/05 08:56:01;;;;;;;10.70;2.22;;;;;;;11.91;32.46;94484.06;5011416;28;20847;-63
2021/04/05 08:58:31;;;;;;;2.88;1.88;;;;;;;12.05;32.20;94499.78;5011712;28;20057;-61
2021/04/05 09:01:00;;;;;;;2.85;1.48;;;;;;;12.00;32.60;94510.66;5009705;28;20054;-63
2021/04/05 09:03:29;;;;;;;8.27;2.22;;;;;;;12.88;31.48;94485.38;5011013;28;20038;-64
2021/04/05 09:05:55;;;;;;;4.32;2.20;;;;;;;13.57;30.70;94483.66;5011110;28;20492;-64
2021/04/05 09:08:24;;;;;;;3.80;2.13;;;;;;;13.26;31.08;94485.06;5010838;28;20045;-63
2021/04/05 09:10:52;;;;;;;4.38;1.85;;;;;;;13.33;30.16;94489.81;5011250;28;20030;-61
2021/04/05 09:13:45;;;;;;;3.78;2.03;;;;;;;13.29;30.04;94471.00;5011542;28;20026;-64
2021/04/05 09:16:55;;;;;;;6.00;2.30;;;;;;;12.91;30.54;94474.81;5011098;28;20041;-64
2021/04/05 09:20:01;;;;;;;9.57;1.50;;;;;;;12.80;31.13;94484.38;5026325;28;20050;-66
2021/04/05 09:22:45;;;;;;;2.80;1.50;;;;;;;12.28;30.81;94374.84;5011308;28;20156;-63
2021/04/05 09:25:19;;;;;;;4.15;1.75;;;;;;;12.68;31.30;94489.69;5010850;28;20038;-64
2021/04/05 09:27:58;;;;;;;3.25;1.77;;;;;;;13.37;30.25;94472.78;5010656;28;20400;-65
2021/04/05 09:30:42;;;;;;;5.82;1.90;;;;;;;12.96;31.01;94471.16;5010708;28;20041;-66
2021/04/05 09:33:38;;;;;;;6.13;2.08;;;;;;;13.53;30.47;94454.94;5010430;28;20049;-68
2021/04/05 09:36:13;;;;;;;4.97;1.52;;;;;;;14.23;29.71;94456.44;5011774;28;20034;-65
2021/04/05 09:38:50;;;;;;;4.85;2.08;;;;;;;14.24;29.17;94452.63;5011633;28;20041;-65
2021/04/05 09:41:43;;;;;;;3.67;1.67;;;;;;;13.49;30.20;94448.69;5011465;28;20045;-65
2021/04/05 09:44:53;;;;;;;1.67;1.35;;;;;;;13.04;30.88;94442.75;5011861;28;20475;-66
2021/04/05 09:47:40;;;;;;;2.97;1.98;;;;;;;13.12;30.50;94407.94;5010062;28;20037;-70
2021/04/05 09:50:08;;;;;;;2.42;1.45;;;;;;;13.72;29.90;94418.81;5010970;28;20026;-66
2021/04/05 09:53:04;;;;;;;2.88;1.77;;;;;;;14.07;29.05;94424.28;5013067;28;20030;-64
2021/04/05 09:55:33;;;;;;;7.05;1.90;;;;;;;14.22;29.24;94409.38;5011801;28;20157;-67
2021/04/05 09:58:06;;;;;;;5.70;1.70;;;;;;;14.31;29.56;94401.97;5011121;28;20091;-69
2021/04/05 10:00:32;;;;;;;3.80;2.08;;;;;;;13.91;30.14;94400.19;5009974;28;20512;-69
2021/04/05 10:03:08;;;;;;;2.72;1.90;;;;;;;14.10;30.21;94377.38;5026418;28;20388;-68
2021/04/05 10:05:35;;;;;;;10.55;2.00;;;;;;;14.70;28.71;94396.81;5009895;28;20030;-68
2021/04/05 10:08:02;;;;;;;5.95;1.63;;;;;;;13.78;29.37;94391.47;5010999;28;20392;-65
2021/04/05 10:10:29;;;;;;;7.68;1.67;;;;;;;14.01;28.99;94380.97;5013106;28;20014;-63
2021/04/05 10:12:58;;;;;;;3.53;1.30;;;;;;;13.65;29.72;94405.22;5009600;28;20072;-64
2021/04/05 10:15:26;;;;;;;7.13;1.30;;;;;;;13.13;29.98;94403.38;5010825;28;20030;-68
2021/04/05 10:17:55;;;;;;;3.85;1.35;;;;;;;12.95;30.13;94397.53;5010922;28;20038;-66
2021/04/05 10:20:26;;;;;;;1.88;1.35;;;;;;;12.90;30.53;94360.38;5010402;28;20437;-66
2021/04/05 10:22:53;;;;;;;6.07;2.00;;;;;;;13.25;30.09;94337.38;5010756;28;20037;-67
2021/04/05 10:25:21;;;;;;;5.32;1.70;;;;;;;14.30;29.20;94352.28;5011679;28;20104;-67
2021/04/05 10:27:52;;;;;;;2.33;1.35;;;;;;;13.38;29.79;94330.09;5010604;28;20034;-68
2021/04/05 10:30:19;;;;;;;2.80;1.48;;;;;;;14.36;28.22;94285.91;5007642;28;20038;-67
2021/04/05 10:32:45;;;;;;;4.43;1.50;;;;;;;13.57;29.01;94339.38;5010394;28;20505;-66
2021/04/05 10:35:13;;;;;;;2.88;1.90;;;;;;;14.46;28.04;94331.63;5009335;28;20053;-67
2021/04/05 10:37:44;;;;;;;5.40;1.70;;;;;;;14.66;27.90;94323.69;5012555;28;20030;-67
2021/04/05 10:40:15;;;;;;;5.68;1.60;;;;;;;14.43;28.33;94324.28;5010695;28;20034;-67
2021/04/05 10:42:54;;;;;;;4.82;1.90;;;;;;;14.95;27.75;94325.84;5010458;28;20523;-68
2021/04/05 10:45:26;;;;;;;2.58;1.80;;;;;;;14.31;28.63;94325.16;5010718;28;20073;-65
2021/04/05 10:48:21;;;;;;;2.35;1.52;;;;;;;14.01;29.04;94346.22;5010282;28;20034;-67
2021/04/05 10:50:59;;;;;;;2.95;1.40;;;;;;;12.88;29.95;94312.66;5009600;28;20641;-66
2021/04/05 10:53:27;;;;;;;3.67;1.30;;;;;;;13.43;29.47;94332.50;5010277;28;20073;-68
2021/04/05 10:56:03;;;;;;;4.32;1.77;;;;;;;13.66;29.45;94297.22;5010576;28;20527;-67
2021/04/05 10:58:35;;;;;;;2.80;1.58;;;;;;;13.76;29.31;94299.38;5012007;28;20029;-68
2021/04/05 11:01:04;;;;;;;6.07;1.63;;;;;;;13.05;30.01;94302.81;5008713;28;20033;-68
2021/04/05 11:03:31;;;;;;;8.77;1.85;;;;;;;13.34;30.34;94312.41;5010020;28;20034;-66
2021/04/05 11:06:09;;;;;;;5.32;2.42;;;;;;;13.55;29.69;94307.63;5010373;28;20045;-67
2021/04/05 11:08:36;;;;;;;3.33;1.30;;;;;;;13.19;30.09;94311.22;5009452;28;20054;-63
2021/04/05 11:11:06;;;;;;;3.83;1.73;;;;;;;13.26;30.03;94322.16;5010256;28;20104;-64
2021/04/05 11:13:36;;;;;;;2.42;1.60;;;;;;;12.73;30.93;94294.69;5012025;28;20037;-65
2021/04/05 11:16:08;;;;;;;7.72;1.90;;;;;;;13.30;29.79;94301.63;5010061;28;20038;-65
2021/04/05 11:18:34;;;;;;;5.78;1.77;;;;;;;12.99;30.51;94264.91;5015801;28;20038;-65
2021/04/05 11:21:01;;;;;;;6.22;2.00;;;;;;;13.36;29.44;94284.25;5028987;28;20143;-64
2021/04/05 11:23:33;;;;;;;8.82;1.80;;;;;;;13.23;29.56;94258.72;5029439;28;20030;-66
2021/04/05 11:26:01;;;;;;;6.50;1.90;;;;;;;13.14;29.66;94261.50;5029795;28;20431;-71
2021/04/05 11:28:30;;;;;;;2.38;1.63;;;;;;;13.70;28.99;94247.31;5030028;28;20018;-68
2021/04/05 11:31:05;;;;;;;4.63;1.77;;;;;;;13.57;29.42;94267.22;5029645;28;20126;-64
2021/04/05 11:33:36;;;;;;;4.80;1.77;;;;;;;13.56;29.01;94236.25;5029453;28;20042;-65
2021/04/05 11:36:05;;;;;;;3.38;1.85;;;;;;;13.44;29.96;94245.13;5029692;28;20117;-68
2021/04/05 11:38:36;;;;;;;3.50;2.05;;;;;;;13.50;29.54;94198.34;5016161;28;20037;-66
2021/04/05 11:41:05;;;;;;;2.80;1.58;;;;;;;13.50;29.64;94214.38;5028955;28;20036;-64
2021/04/05 11:43:34;;;;;;;2.75;2.10;;;;;;;14.01;29.21;94217.88;5031236;28;20036;-66
2021/04/05 11:46:20;;;;;;;5.03;1.90;;;;;;;14.03;28.45;94202.28;5029348;28;20044;-68
2021/04/05 11:49:00;;;;;;;4.47;1.58;;;;;;;14.21;27.83;94208.00;5028977;28;20034;-68
2021/04/05 11:51:27;;;;;;;2.10;1.50;;;;;;;14.02;27.43;94162.50;5028574;28;20095;-68
2021/04/05 11:53:58;;;;;;;2.70;1.48;;;;;;;13.80;28.05;94196.00;5029589;28;20037;-68
2021/04/05 11:56:28;;;;;;;2.53;1.55;;;;;;;13.59;27.27;94244.38;5029469;28;20037;-68
2021/04/05 11:59:02;;;;;;;3.65;1.65;;;;;;;13.62;27.16;94224.22;5027825;28;20083;-69
2021/04/05 12:01:36;;;;;;;1.42;1.33;;;;;;;13.66;27.38;94195.66;5029926;28;20025;-68
2021/04/05 12:04:12;;;;;;;3.35;1.38;;;;;;;13.20;27.24;94221.97;5029757;28;20110;-68
2021/04/05 12:06:42;;;;;;;1.08;1.05;;;;;;;13.70;27.77;94202.66;5029521;28;20036;-68
2021/04/05 12:09:31;;;;;;;5.22;1.20;;;;;;;13.42;27.82;94218.00;5029240;28;20395;-66
2021/04/05 12:12:02;;;;;;;2.25;1.35;;;;;;;13.34;26.73;94173.53;5029300;28;20501;-67